createdAt,value
2023-12-21T00:00:49.438Z,6.86
2023-12-21T00:02:52.690Z,6.86
2023-12-21T00:04:54.945Z,6.88
2023-12-21T00:06:58.352Z,6.91
2023-12-21T00:09:01.641Z,6.91
2023-12-21T00:11:04.989Z,6.87
2023-12-21T00:13:07.288Z,6.95
2023-12-21T00:15:11.442Z,6.96
2023-12-21T00:17:16.156Z,6.99
2023-12-21T00:19:19.446Z,6.96
2023-12-21T00:21:21.624Z,6.95
2023-12-21T00:23:24.814Z,6.95
2023-12-21T00:25:27.203Z,6.98
2023-12-21T00:27:30.517Z,6.95
2023-12-21T00:29:33.872Z,6.92
2023-12-21T00:31:36.247Z,6.97
2023-12-21T00:33:40.955Z,6.98
2023-12-21T00:35:44.261Z,6.94
2023-12-21T00:37:47.784Z,6.99
2023-12-21T00:39:51.019Z,7.02
2023-12-21T00:41:54.133Z,7.04
2023-12-21T00:43:57.485Z,7.06
2023-12-21T00:46:00.737Z,6.96
2023-12-21T00:48:03.938Z,6.99
2023-12-21T00:50:09.431Z,6.96
2023-12-21T00:52:12.523Z,6.91
2023-12-21T00:54:15.758Z,6.94
2023-12-21T00:56:18.913Z,6.89
2023-12-21T00:58:22.077Z,6.86
2023-12-21T01:00:25.337Z,6.86
2023-12-21T01:02:28.538Z,6.87
2023-12-21T01:04:31.710Z,6.86
2023-12-21T01:06:37.634Z,6.86
2023-12-21T01:08:40.862Z,6.84
2023-12-21T01:10:44.171Z,6.88
2023-12-21T01:12:47.602Z,6.91
2023-12-21T01:14:50.862Z,6.98
2023-12-21T01:16:53.073Z,7.00
2023-12-21T01:18:56.322Z,6.98
2023-12-21T01:21:00.155Z,6.96
2023-12-21T01:23:04.961Z,6.91
2023-12-21T01:25:08.942Z,6.94
2023-12-21T01:27:21.790Z,6.97
2023-12-21T01:29:32.722Z,6.98
2023-12-21T01:31:35.990Z,7.01
2023-12-21T01:33:39.482Z,7.00
2023-12-21T01:35:42.783Z,6.98
2023-12-21T01:37:46.408Z,6.96
2023-12-21T01:39:51.017Z,6.92
2023-12-21T01:41:57.152Z,6.89
2023-12-21T01:44:00.373Z,6.89
2023-12-21T01:46:04.877Z,6.94
2023-12-21T01:48:09.052Z,6.93
2023-12-21T01:50:12.602Z,6.91
2023-12-21T01:52:15.959Z,6.96
2023-12-21T01:54:19.547Z,6.91
2023-12-21T01:56:23.162Z,6.92
2023-12-21T01:58:26.392Z,6.98
2023-12-21T02:00:31.005Z,7.02
2023-12-21T02:02:34.124Z,6.98
2023-12-21T02:04:37.313Z,6.94
2023-12-21T02:06:41.638Z,6.99
2023-12-21T02:08:44.849Z,6.92
2023-12-21T02:10:48.362Z,6.96
2023-12-21T02:12:52.967Z,6.91
2023-12-21T02:14:56.158Z,6.95
2023-12-21T02:17:03.267Z,6.94
2023-12-21T02:19:07.166Z,6.94
2023-12-21T02:21:11.431Z,6.98
2023-12-21T02:23:16.429Z,7.03
2023-12-21T02:25:21.337Z,7.05
2023-12-21T02:27:24.452Z,7.04
2023-12-21T02:29:27.608Z,7.00
2023-12-21T02:31:30.786Z,6.99
2023-12-21T02:33:34.073Z,7.02
2023-12-21T02:35:37.421Z,7.05
2023-12-21T02:37:40.591Z,7.04
2023-12-21T02:39:43.931Z,7.01
2023-12-21T02:41:49.484Z,7.03
2023-12-21T02:43:52.713Z,7.03
2023-12-21T02:45:54.818Z,7.03
2023-12-21T02:47:58.093Z,7.06
2023-12-21T02:50:01.494Z,7.06
2023-12-21T02:52:05.189Z,7.06
2023-12-21T02:54:08.430Z,7.06
2023-12-21T02:56:11.590Z,7.10
2023-12-21T02:58:16.193Z,7.18
2023-12-21T03:00:20.137Z,7.21
2023-12-21T03:02:23.328Z,7.28
2023-12-21T03:04:26.487Z,7.26
2023-12-21T03:06:29.625Z,7.21
2023-12-21T03:08:33.907Z,7.24
2023-12-21T03:10:37.105Z,7.26
2023-12-21T03:12:39.317Z,7.26
2023-12-21T03:14:43.969Z,7.27
2023-12-21T03:16:47.235Z,7.26
2023-12-21T03:18:50.365Z,7.26
2023-12-21T03:20:53.463Z,7.28
2023-12-21T03:22:56.590Z,7.31
2023-12-21T03:24:59.843Z,7.30
2023-12-21T03:27:05.288Z,7.32
2023-12-21T03:29:08.469Z,7.33
2023-12-21T03:31:13.116Z,7.31
2023-12-21T03:33:16.469Z,7.29
2023-12-21T03:35:20.263Z,7.36
2023-12-21T03:37:22.644Z,7.31
2023-12-21T03:39:25.889Z,7.32
2023-12-21T03:41:29.133Z,7.36
2023-12-21T03:43:32.291Z,7.35
2023-12-21T03:45:40.942Z,7.34
2023-12-21T03:47:45.665Z,7.31
2023-12-21T03:49:47.861Z,7.35
2023-12-21T03:51:50.984Z,7.36
2023-12-21T03:53:55.659Z,7.33
2023-12-21T03:55:58.059Z,7.36
2023-12-21T03:58:01.303Z,7.34
2023-12-21T04:00:05.068Z,7.23
2023-12-21T04:02:08.415Z,7.20
2023-12-21T04:04:12.986Z,7.25
2023-12-21T04:06:16.106Z,7.25
2023-12-21T04:08:22.424Z,7.22
2023-12-21T04:10:25.618Z,7.20
2023-12-21T04:12:28.773Z,7.24
2023-12-21T04:14:30.877Z,7.22
2023-12-21T04:16:34.136Z,7.24
2023-12-21T04:18:37.394Z,7.19
2023-12-21T04:20:41.911Z,7.21
2023-12-21T04:22:45.285Z,7.21
2023-12-21T04:24:48.597Z,7.18
2023-12-21T04:26:50.921Z,7.14
2023-12-21T04:28:54.380Z,7.17
2023-12-21T04:30:57.627Z,7.20
2023-12-21T04:33:01.169Z,7.22
2023-12-21T04:35:04.429Z,7.27
2023-12-21T04:37:08.961Z,7.24
2023-12-21T04:39:12.101Z,7.24
2023-12-21T04:41:15.307Z,7.19
2023-12-21T04:43:17.516Z,7.21
2023-12-21T04:45:20.871Z,7.23
2023-12-21T04:47:24.463Z,7.24
2023-12-21T04:49:28.393Z,7.20
2023-12-21T04:51:31.597Z,7.20
2023-12-21T04:53:36.173Z,7.17
2023-12-21T04:55:39.535Z,7.19
2023-12-21T04:57:41.990Z,7.18
2023-12-21T04:59:45.249Z,7.18
2023-12-21T05:01:50.911Z,7.18
2023-12-21T05:03:54.608Z,7.17
2023-12-21T05:05:57.855Z,7.16
2023-12-21T05:08:00.970Z,7.20
2023-12-21T05:10:06.738Z,7.18
2023-12-21T05:12:10.719Z,7.15
2023-12-21T05:14:14.160Z,7.16
2023-12-21T05:16:17.707Z,7.21
2023-12-21T05:18:20.903Z,7.20
2023-12-21T05:20:24.236Z,7.18
2023-12-21T05:22:27.484Z,7.23
2023-12-21T05:24:30.535Z,7.18
2023-12-21T05:26:35.111Z,7.19
2023-12-21T05:28:39.636Z,7.24
2023-12-21T05:30:42.924Z,7.24
2023-12-21T05:32:46.370Z,7.24
2023-12-21T05:34:49.700Z,7.23
2023-12-21T05:36:53.328Z,7.26
2023-12-21T05:38:56.409Z,7.29
2023-12-21T05:40:59.690Z,7.27
2023-12-21T05:43:04.232Z,7.28
2023-12-21T05:45:09.158Z,7.30
2023-12-21T05:47:12.491Z,7.33
2023-12-21T05:49:15.764Z,7.35
2023-12-21T05:51:18.918Z,7.37
2023-12-21T05:53:22.005Z,7.33
2023-12-21T05:55:24.186Z,7.34
2023-12-21T05:57:27.763Z,7.35
2023-12-21T05:59:32.606Z,7.39
2023-12-21T06:01:35.855Z,7.40
2023-12-21T06:03:39.169Z,7.41
2023-12-21T06:05:42.436Z,7.43
2023-12-21T06:07:45.637Z,7.41
2023-12-21T06:09:48.712Z,7.44
2023-12-21T06:11:51.948Z,7.45
2023-12-21T06:13:55.012Z,7.43
2023-12-21T06:15:59.535Z,7.48
2023-12-21T06:18:01.753Z,7.48
2023-12-21T06:20:05.516Z,7.50
2023-12-21T06:22:08.646Z,7.49
2023-12-21T06:24:11.893Z,7.48
2023-12-21T06:26:14.965Z,7.47
2023-12-21T06:28:18.357Z,7.49
2023-12-21T06:30:21.750Z,7.51
2023-12-21T06:32:25.780Z,7.51
2023-12-21T06:34:29.406Z,7.53
2023-12-21T06:36:33.644Z,7.53
2023-12-21T06:38:36.867Z,7.49
2023-12-21T06:40:40.758Z,7.50
2023-12-21T06:42:44.024Z,7.55
2023-12-21T06:44:47.236Z,7.57
2023-12-21T06:46:52.083Z,7.57
2023-12-21T06:48:56.590Z,7.57
2023-12-21T06:50:59.060Z,7.56
2023-12-21T06:53:02.135Z,7.58
2023-12-21T06:55:05.935Z,7.58
2023-12-21T06:57:09.132Z,7.61
2023-12-21T06:59:12.442Z,7.64
2023-12-21T07:01:14.744Z,7.64
2023-12-21T07:03:17.978Z,7.64
2023-12-21T07:05:22.603Z,7.66
2023-12-21T07:07:25.869Z,7.68
2023-12-21T07:09:29.004Z,7.70
2023-12-21T07:11:32.170Z,7.69
2023-12-21T07:13:35.998Z,7.69
2023-12-21T07:15:38.319Z,7.70
2023-12-21T07:17:41.552Z,7.75
2023-12-21T07:19:43.731Z,7.74
2023-12-21T07:21:48.243Z,7.74
2023-12-21T07:23:51.352Z,7.78
2023-12-21T07:25:54.556Z,7.82
2023-12-21T07:27:56.638Z,7.85
2023-12-21T07:30:00.422Z,7.82
2023-12-21T07:32:03.555Z,7.86
2023-12-21T07:34:07.477Z,7.86
2023-12-21T07:36:11.162Z,7.87
2023-12-21T07:38:15.672Z,7.91
2023-12-21T07:40:18.914Z,7.93
2023-12-21T07:42:22.070Z,7.91
2023-12-21T07:44:25.222Z,7.88
2023-12-21T07:46:28.462Z,7.91
2023-12-21T07:48:31.755Z,7.90
2023-12-21T07:50:35.302Z,7.94
2023-12-21T07:52:39.091Z,8.00
2023-12-21T07:54:43.971Z,8.00
2023-12-21T07:56:47.302Z,8.00
2023-12-21T07:58:50.546Z,8.02
2023-12-21T08:00:53.740Z,8.05
2023-12-21T08:02:56.924Z,8.05
2023-12-21T08:04:59.966Z,8.02
2023-12-21T08:07:03.306Z,8.02
2023-12-21T08:09:10.384Z,8.06
2023-12-21T08:11:14.897Z,8.06
2023-12-21T08:13:18.100Z,8.07
2023-12-21T08:15:20.424Z,8.10
2023-12-21T08:17:23.804Z,8.10
2023-12-21T08:19:27.349Z,8.06
2023-12-21T08:21:30.665Z,8.08
2023-12-21T08:23:32.793Z,8.10
2023-12-21T08:25:35.976Z,8.08
2023-12-21T08:27:42.504Z,8.08
2023-12-21T08:29:45.806Z,8.07
2023-12-21T08:31:48.985Z,8.07
2023-12-21T08:33:51.399Z,8.10
2023-12-21T08:35:54.784Z,8.15
2023-12-21T08:38:00.387Z,8.17
2023-12-21T08:40:03.520Z,8.21
2023-12-21T08:42:07.289Z,8.21
2023-12-21T08:44:12.574Z,8.24
2023-12-21T08:46:15.906Z,8.22
2023-12-21T08:48:19.203Z,8.24
2023-12-21T08:50:21.682Z,8.28
2023-12-21T08:52:24.854Z,8.28
2023-12-21T08:54:28.594Z,8.29
2023-12-21T08:56:33.592Z,8.30
2023-12-21T08:58:37.221Z,8.33
2023-12-21T09:00:41.829Z,8.32
2023-12-21T09:02:44.040Z,8.35
2023-12-21T09:04:48.647Z,8.33
2023-12-21T09:06:52.141Z,8.38
2023-12-21T09:08:55.442Z,8.38
2023-12-21T09:10:58.709Z,8.38
2023-12-21T09:13:02.030Z,8.35
2023-12-21T09:15:06.071Z,8.32
2023-12-21T09:17:10.630Z,8.36
2023-12-21T09:19:13.901Z,8.36
2023-12-21T09:21:17.317Z,8.36
2023-12-21T09:23:20.723Z,8.34
2023-12-21T09:25:24.006Z,8.40
2023-12-21T09:27:29.041Z,8.35
2023-12-21T09:29:32.184Z,8.38
2023-12-21T09:31:35.429Z,8.42
2023-12-21T09:33:41.465Z,8.43
2023-12-21T09:35:44.818Z,8.45
2023-12-21T09:37:49.157Z,8.48
2023-12-21T09:39:52.747Z,8.51
2023-12-21T09:42:00.628Z,8.50
2023-12-21T09:44:07.602Z,8.51
2023-12-21T09:46:11.027Z,8.48
2023-12-21T09:48:16.440Z,8.47
2023-12-21T09:50:21.391Z,8.47
2023-12-21T09:52:25.501Z,8.48
2023-12-21T09:54:28.819Z,8.50
2023-12-21T09:56:33.472Z,8.53
2023-12-21T09:58:37.286Z,8.54
2023-12-21T10:00:40.179Z,8.58
2023-12-21T10:02:43.509Z,8.56
2023-12-21T10:04:47.472Z,8.59
2023-12-21T10:06:52.190Z,8.60
2023-12-21T10:08:55.547Z,8.68
2023-12-21T10:10:58.869Z,8.67
2023-12-21T10:13:02.157Z,8.74
2023-12-21T10:15:06.098Z,8.79
2023-12-21T10:17:11.852Z,8.80
2023-12-21T10:19:15.513Z,8.79
2023-12-21T10:21:17.990Z,8.77
2023-12-21T10:23:24.525Z,8.76
2023-12-21T10:25:28.359Z,8.78
2023-12-21T10:27:31.695Z,8.82
2023-12-21T10:29:34.805Z,8.80
2023-12-21T10:31:37.991Z,8.82
2023-12-21T10:33:43.802Z,8.83
2023-12-21T10:35:48.452Z,8.83
2023-12-21T10:37:51.695Z,8.84
2023-12-21T10:39:58.095Z,8.92
2023-12-21T10:42:01.408Z,8.94
2023-12-21T10:44:05.472Z,8.94
2023-12-21T10:46:10.998Z,8.95
2023-12-21T10:48:16.401Z,8.95
2023-12-21T10:50:20.960Z,8.93
2023-12-21T10:52:24.796Z,8.93
2023-12-21T10:54:29.466Z,8.97
2023-12-21T10:56:33.357Z,8.97
2023-12-21T10:58:36.703Z,8.97
2023-12-21T11:00:40.934Z,9.01
2023-12-21T11:02:47.695Z,8.96
2023-12-21T11:04:53.490Z,8.99
2023-12-21T11:06:56.170Z,8.98
2023-12-21T11:09:00.335Z,9.00
2023-12-21T11:11:04.658Z,9.08
2023-12-21T11:13:09.530Z,9.02
2023-12-21T11:15:13.194Z,9.02
2023-12-21T11:17:16.450Z,9.00
2023-12-21T11:19:24.931Z,9.02
2023-12-21T11:21:28.782Z,9.01
2023-12-21T11:23:31.967Z,9.05
2023-12-21T11:25:35.542Z,9.08
2023-12-21T11:27:38.997Z,9.09
2023-12-21T11:29:45.299Z,9.14
2023-12-21T11:31:48.560Z,9.13
2023-12-21T11:33:51.996Z,9.16
2023-12-21T11:35:55.749Z,9.14
2023-12-21T11:38:01.680Z,9.18
2023-12-21T11:40:06.166Z,9.19
2023-12-21T11:42:11.163Z,9.19
2023-12-21T11:44:14.725Z,9.19
2023-12-21T11:46:19.474Z,9.19
2023-12-21T11:48:22.831Z,9.22
2023-12-21T11:50:27.768Z,9.14
2023-12-21T11:52:31.590Z,9.15
2023-12-21T11:54:36.349Z,9.18
2023-12-21T11:56:40.603Z,9.12
2023-12-21T11:58:44.991Z,9.10
2023-12-21T12:00:50.167Z,9.13
2023-12-21T12:02:55.289Z,9.08
2023-12-21T12:04:58.022Z,9.11
2023-12-21T12:07:01.268Z,9.12
2023-12-21T12:09:04.441Z,9.12
2023-12-21T12:11:07.612Z,9.13
2023-12-21T12:13:18.180Z,9.13
2023-12-21T12:15:21.999Z,9.10
2023-12-21T12:17:28.074Z,9.10
2023-12-21T12:19:33.006Z,9.14
2023-12-21T12:21:36.981Z,9.10
2023-12-21T12:23:41.420Z,9.12
2023-12-21T12:25:49.828Z,9.14
2023-12-21T12:27:54.368Z,9.11
2023-12-21T12:29:57.816Z,9.11
2023-12-21T12:32:02.015Z,9.12
2023-12-21T12:34:05.713Z,9.10
2023-12-21T12:36:11.069Z,9.13
2023-12-21T12:38:14.469Z,9.16
2023-12-21T12:40:18.002Z,9.14
2023-12-21T12:42:22.156Z,9.12
2023-12-21T12:44:25.939Z,9.13
2023-12-21T12:46:29.898Z,9.16
2023-12-21T12:48:33.228Z,9.17
2023-12-21T12:50:37.618Z,9.22
2023-12-21T12:52:45.639Z,9.28
2023-12-21T12:54:47.757Z,9.28
2023-12-21T12:56:51.022Z,9.31
2023-12-21T12:58:59.041Z,9.35
2023-12-21T13:01:03.654Z,9.41
2023-12-21T13:03:06.821Z,9.48
2023-12-21T13:05:10.809Z,9.58
2023-12-21T13:07:13.176Z,9.66
2023-12-21T13:09:17.653Z,9.67
2023-12-21T13:11:22.974Z,9.73
2023-12-21T13:13:26.186Z,9.74
2023-12-21T13:15:29.285Z,9.75
2023-12-21T13:17:32.293Z,9.78
2023-12-21T13:19:35.351Z,9.72
2023-12-21T13:21:39.413Z,9.74
2023-12-21T13:23:43.335Z,9.72
2023-12-21T13:25:55.149Z,9.76
2023-12-21T13:28:11.472Z,9.78
2023-12-21T13:30:24.164Z,9.72
2023-12-21T13:32:27.237Z,9.73
2023-12-21T13:34:31.938Z,9.76
2023-12-21T13:36:34.009Z,9.77
2023-12-21T13:38:38.756Z,9.79
2023-12-21T13:40:41.978Z,9.77
2023-12-21T13:42:46.750Z,9.80
2023-12-21T13:44:49.782Z,9.80
2023-12-21T13:46:51.869Z,9.83
2023-12-21T13:48:54.886Z,9.87
2023-12-21T13:50:58.077Z,9.90
2023-12-21T13:53:01.188Z,9.91
2023-12-21T13:55:04.464Z,9.92
2023-12-21T13:57:13.914Z,9.94
2023-12-21T13:59:19.529Z,9.99
2023-12-21T14:01:24.188Z,10.00
2023-12-21T14:03:27.292Z,10.01
2023-12-21T14:05:30.599Z,9.99
2023-12-21T14:07:33.904Z,10.02
2023-12-21T14:09:38.856Z,9.99
2023-12-21T14:11:42.092Z,10.05
2023-12-21T14:13:45.132Z,10.07
2023-12-21T14:15:49.560Z,10.02
2023-12-21T14:17:52.609Z,10.06
2023-12-21T14:19:54.815Z,10.03
2023-12-21T14:21:57.841Z,10.03
2023-12-21T14:24:00.924Z,10.12
2023-12-21T14:26:04.693Z,10.08
2023-12-21T14:28:07.749Z,10.07
2023-12-21T14:30:10.516Z,10.06
2023-12-21T14:32:17.272Z,10.07
2023-12-21T14:34:21.698Z,10.06
2023-12-21T14:36:24.714Z,10.07
2023-12-21T14:38:31.444Z,10.05
2023-12-21T14:40:34.400Z,9.99
2023-12-21T14:42:39.385Z,10.04
2023-12-21T14:44:42.449Z,10.10
2023-12-21T14:46:45.521Z,10.07
2023-12-21T14:48:50.006Z,10.04
2023-12-21T14:50:52.106Z,9.97
2023-12-21T14:52:55.435Z,9.96
2023-12-21T14:54:58.654Z,9.98
2023-12-21T14:57:02.313Z,9.97
2023-12-21T14:59:05.536Z,9.84
2023-12-21T15:01:08.943Z,9.87
2023-12-21T15:03:11.710Z,9.94
2023-12-21T15:05:19.401Z,9.98
2023-12-21T15:07:22.457Z,10.02
2023-12-21T15:09:25.691Z,10.04
2023-12-21T15:11:28.648Z,10.08
2023-12-21T15:13:32.654Z,10.09
2023-12-21T15:15:35.761Z,10.16
2023-12-21T15:17:39.081Z,10.18
2023-12-21T15:19:42.223Z,10.20
2023-12-21T15:21:47.327Z,10.24
2023-12-21T15:23:50.390Z,10.24
2023-12-21T15:25:53.472Z,10.22
2023-12-21T15:27:56.744Z,10.26
2023-12-21T15:30:00.524Z,10.30
2023-12-21T15:32:03.629Z,10.30
2023-12-21T15:34:06.839Z,10.29
2023-12-21T15:36:11.926Z,10.29
2023-12-21T15:38:16.533Z,10.30
2023-12-21T15:40:19.925Z,10.22
2023-12-21T15:42:22.444Z,10.28
2023-12-21T15:44:25.984Z,10.23
2023-12-21T15:46:29.095Z,10.23
2023-12-21T15:48:33.332Z,10.20
2023-12-21T15:50:36.641Z,10.20
2023-12-21T15:52:38.668Z,10.18
2023-12-21T15:54:43.068Z,10.16
2023-12-21T15:56:49.134Z,10.18
2023-12-21T15:58:51.467Z,10.17
2023-12-21T16:00:57.521Z,10.15
2023-12-21T16:03:00.582Z,10.09
2023-12-21T16:05:03.681Z,10.11
2023-12-21T16:07:06.916Z,10.13
2023-12-21T16:09:11.000Z,10.08
2023-12-21T16:11:15.546Z,10.10
2023-12-21T16:13:17.933Z,10.10
2023-12-21T16:15:20.958Z,10.11
2023-12-21T16:17:23.977Z,10.14
2023-12-21T16:19:27.083Z,10.16
2023-12-21T16:21:30.137Z,10.21
2023-12-21T16:23:33.114Z,10.22
2023-12-21T16:25:35.225Z,10.24
2023-12-21T16:27:39.615Z,10.27
2023-12-21T16:29:42.872Z,10.23
2023-12-21T16:31:45.940Z,10.27
2023-12-21T16:33:49.214Z,10.30
2023-12-21T16:35:52.358Z,10.33
2023-12-21T16:37:55.500Z,10.36
2023-12-21T16:39:58.724Z,10.36
2023-12-21T16:42:01.832Z,10.37
2023-12-21T16:44:06.124Z,10.45
2023-12-21T16:46:10.418Z,10.46
2023-12-21T16:48:14.610Z,10.51
2023-12-21T16:50:19.655Z,10.50
2023-12-21T16:52:22.757Z,10.52
2023-12-21T16:54:26.408Z,10.52
2023-12-21T16:56:29.532Z,10.50
2023-12-21T16:58:32.570Z,10.54
2023-12-21T17:00:36.938Z,10.59
2023-12-21T17:02:40.042Z,10.60
2023-12-21T17:04:43.343Z,10.61
2023-12-21T17:06:46.450Z,10.58
2023-12-21T17:08:49.604Z,10.67
2023-12-21T17:10:52.729Z,10.66
2023-12-21T17:12:58.061Z,10.69
2023-12-21T17:15:01.167Z,10.65
2023-12-21T17:17:05.974Z,10.64
2023-12-21T17:19:09.485Z,10.69
2023-12-21T17:21:12.614Z,10.69
2023-12-21T17:23:17.168Z,10.67
2023-12-21T17:25:21.651Z,10.67
2023-12-21T17:27:24.579Z,10.72
2023-12-21T17:29:27.592Z,10.75
2023-12-21T17:31:30.810Z,10.71
2023-12-21T17:33:35.185Z,10.71
2023-12-21T17:35:38.351Z,10.73
2023-12-21T17:37:41.494Z,10.75
2023-12-21T17:39:44.995Z,10.74
2023-12-21T17:41:50.399Z,10.75
2023-12-21T17:43:54.645Z,10.75
2023-12-21T17:46:00.605Z,10.80
2023-12-21T17:48:04.388Z,10.80
2023-12-21T17:50:10.643Z,10.77
2023-12-21T17:52:14.007Z,10.76
2023-12-21T17:54:19.824Z,10.73
2023-12-21T17:56:23.011Z,10.74
2023-12-21T17:58:26.132Z,10.79
2023-12-21T18:00:29.192Z,10.80
2023-12-21T18:02:32.229Z,10.81
2023-12-21T18:04:34.439Z,10.86
2023-12-21T18:06:38.892Z,10.85
2023-12-21T18:08:42.205Z,10.85
2023-12-21T18:10:46.300Z,10.86
2023-12-21T18:12:49.483Z,10.86
2023-12-21T18:14:52.532Z,10.89
2023-12-21T18:16:55.633Z,10.90
2023-12-21T18:18:59.739Z,10.85
2023-12-21T18:21:02.979Z,10.81
2023-12-21T18:23:07.512Z,10.82
2023-12-21T18:25:09.848Z,10.79
2023-12-21T18:27:13.647Z,10.80
2023-12-21T18:29:16.708Z,10.81
2023-12-21T18:31:19.719Z,10.82
2023-12-21T18:33:22.709Z,10.86
2023-12-21T18:35:25.852Z,10.87
2023-12-21T18:37:28.877Z,10.85
2023-12-21T18:39:33.234Z,10.84
2023-12-21T18:41:36.613Z,10.82
2023-12-21T18:43:40.236Z,10.81
2023-12-21T18:45:45.096Z,10.81
2023-12-21T18:47:50.064Z,10.79
2023-12-21T18:49:53.355Z,10.81
2023-12-21T18:51:56.359Z,10.78
2023-12-21T18:53:59.575Z,10.81
2023-12-21T18:56:10.126Z,10.81
2023-12-21T18:58:13.186Z,10.83
2023-12-21T19:00:17.128Z,10.81
2023-12-21T19:02:20.290Z,10.78
2023-12-21T19:04:23.513Z,10.78
2023-12-21T19:06:26.529Z,10.80
2023-12-21T19:08:29.631Z,10.75
2023-12-21T19:10:32.585Z,10.75
2023-12-21T19:12:36.987Z,10.70
2023-12-21T19:14:40.665Z,10.68
2023-12-21T19:16:45.143Z,10.66
2023-12-21T19:18:51.127Z,10.66
2023-12-21T19:20:54.318Z,10.62
2023-12-21T19:22:57.498Z,10.61
2023-12-21T19:25:00.505Z,10.59
2023-12-21T19:27:03.624Z,10.58
2023-12-21T19:29:06.979Z,10.51
2023-12-21T19:31:10.980Z,10.54
2023-12-21T19:33:14.918Z,10.43
2023-12-21T19:35:18.024Z,10.48
2023-12-21T19:37:22.286Z,10.42
2023-12-21T19:39:25.347Z,10.37
2023-12-21T19:41:28.840Z,10.27
2023-12-21T19:43:33.288Z,10.20
2023-12-21T19:45:37.768Z,10.18
2023-12-21T19:47:40.945Z,10.19
2023-12-21T19:49:43.965Z,10.19
2023-12-21T19:51:45.987Z,10.14
2023-12-21T19:53:48.988Z,10.08
2023-12-21T19:55:51.071Z,10.04
2023-12-21T19:57:54.176Z,10.03
2023-12-21T19:59:57.178Z,10.02
2023-12-21T20:02:02.326Z,10.03
2023-12-21T20:04:05.467Z,10.03
2023-12-21T20:06:08.718Z,10.02
2023-12-21T20:08:11.831Z,10.00
2023-12-21T20:10:15.562Z,10.00
2023-12-21T20:12:20.898Z,9.99
2023-12-21T20:14:23.892Z,9.97
2023-12-21T20:16:27.016Z,9.98
2023-12-21T20:18:31.462Z,10.00
2023-12-21T20:20:33.950Z,10.02
2023-12-21T20:22:37.076Z,10.04
2023-12-21T20:24:40.299Z,10.02
2023-12-21T20:26:43.370Z,10.06
2023-12-21T20:28:46.617Z,10.08
2023-12-21T20:30:50.447Z,10.11
2023-12-21T20:32:53.016Z,10.12
2023-12-21T20:34:57.662Z,10.15
2023-12-21T20:37:01.118Z,10.18
2023-12-21T20:39:04.477Z,10.20
2023-12-21T20:41:07.691Z,10.16
2023-12-21T20:43:10.881Z,10.12
2023-12-21T20:45:13.324Z,10.10
2023-12-21T20:47:16.582Z,10.09
2023-12-21T20:49:19.932Z,10.10
2023-12-21T20:51:23.463Z,10.12
2023-12-21T20:53:26.700Z,10.13
2023-12-21T20:55:29.915Z,10.14
2023-12-21T20:57:32.191Z,10.17
2023-12-21T20:59:37.521Z,10.19
2023-12-21T21:01:43.164Z,10.20
2023-12-21T21:03:46.529Z,10.25
2023-12-21T21:05:50.291Z,10.27
2023-12-21T21:07:55.293Z,10.33
2023-12-21T21:09:58.665Z,10.32
2023-12-21T21:12:02.207Z,10.36
2023-12-21T21:14:06.843Z,10.38
2023-12-21T21:16:10.154Z,10.43
2023-12-21T21:18:13.410Z,10.43
2023-12-21T21:20:16.850Z,10.47
2023-12-21T21:22:20.408Z,10.46
2023-12-21T21:24:25.166Z,10.42
2023-12-21T21:26:27.545Z,10.44
2023-12-21T21:28:30.783Z,10.37
2023-12-21T21:30:55.935Z,10.33
2023-12-21T21:32:57.097Z,10.26
2023-12-21T21:34:59.380Z,10.18
2023-12-21T21:37:02.544Z,10.13
2023-12-21T21:39:05.806Z,10.11
2023-12-21T21:41:16.430Z,10.08
2023-12-21T21:43:19.986Z,10.05
2023-12-21T21:45:23.471Z,10.04
2023-12-21T21:47:26.986Z,10.08
2023-12-21T21:49:30.366Z,10.08
2023-12-21T21:51:36.951Z,10.08
2023-12-21T21:53:40.185Z,10.08
2023-12-21T21:55:46.592Z,10.10
2023-12-21T21:57:51.458Z,10.11
2023-12-21T21:59:54.711Z,10.11
2023-12-21T22:01:57.014Z,10.13
2023-12-21T22:04:00.414Z,10.17
2023-12-21T22:06:03.958Z,10.17
2023-12-21T22:08:07.836Z,10.20
2023-12-21T22:10:11.021Z,10.16
2023-12-21T22:12:14.416Z,10.16
2023-12-21T22:14:20.021Z,10.17
2023-12-21T22:16:23.354Z,10.19
2023-12-21T22:18:26.779Z,10.21
2023-12-21T22:20:29.970Z,10.23
2023-12-21T22:22:33.313Z,10.24
2023-12-21T22:24:36.494Z,10.24
2023-12-21T22:26:39.596Z,10.29
2023-12-21T22:28:42.822Z,10.29
2023-12-21T22:30:47.506Z,10.27
2023-12-21T22:32:50.778Z,10.24
2023-12-21T22:34:54.267Z,10.14
2023-12-21T22:36:57.654Z,10.16
2023-12-21T22:38:59.819Z,10.20
2023-12-21T22:41:03.259Z,10.10
2023-12-21T22:43:06.447Z,9.56
2023-12-21T22:45:10.916Z,9.19
2023-12-21T22:47:15.443Z,8.93
2023-12-21T22:49:18.715Z,8.81
2023-12-21T22:51:21.053Z,8.73
2023-12-21T22:53:24.402Z,8.71
2023-12-21T22:55:27.582Z,8.64
2023-12-21T22:57:30.906Z,8.62
2023-12-21T22:59:34.091Z,8.60
2023-12-21T23:01:36.368Z,8.57
2023-12-21T23:03:41.173Z,8.51
2023-12-21T23:05:43.468Z,8.44
2023-12-21T23:07:48.156Z,8.49
2023-12-21T23:09:50.891Z,8.50
2023-12-21T23:11:54.156Z,8.47
2023-12-21T23:13:56.452Z,8.49
2023-12-21T23:16:01.192Z,8.46
2023-12-21T23:18:04.739Z,8.45
2023-12-21T23:20:10.203Z,8.47
2023-12-21T23:22:12.655Z,8.51
2023-12-21T23:24:15.966Z,8.51
2023-12-21T23:26:19.967Z,8.54
2023-12-21T23:28:24.348Z,8.57
2023-12-21T23:30:28.315Z,8.62
2023-12-21T23:32:31.940Z,8.65
2023-12-21T23:34:35.242Z,8.69
2023-12-21T23:36:42.904Z,8.67
2023-12-21T23:38:46.569Z,8.71
2023-12-21T23:40:49.762Z,8.70
2023-12-21T23:42:52.371Z,8.68
2023-12-21T23:44:55.756Z,8.65
2023-12-21T23:46:58.967Z,8.52
2023-12-21T23:49:02.229Z,8.55
2023-12-21T23:51:05.636Z,8.60
2023-12-21T23:53:11.456Z,8.61
2023-12-21T23:55:14.743Z,8.63
2023-12-21T23:57:17.909Z,8.61
2023-12-21T23:59:21.033Z,8.60
